sensor_id;sensor_type;location;lat;lon;timestamp;P1;durP1;ratioP1;P2;durP2;ratioP2
72524;SDS011;60547;48.502;8.996;2023-02-01T00:01:10;6.80;;;2.60;;
72524;SDS011;60547;48.502;8.996;2023-02-01T00:03:35;5.30;;;2.60;;
72524;SDS011;60547;48.502;8.996;2023-02-01T00:06:02;4.25;;;2.20;;
72524;SDS011;60547;48.502;8.996;2023-02-01T00:08:27;4.30;;;2.35;;
72524;SDS011;60547;48.502;8.996;2023-02-01T00:10:57;4.68;;;2.50;;
72524;SDS011;60547;48.502;8.996;2023-02-01T00:13:28;5.40;;;2.38;;
72524;SDS011;60547;48.502;8.996;2023-02-01T00:15:55;5.25;;;2.42;;
72524;SDS011;60547;48.502;8.996;2023-02-01T00:18:26;4.90;;;2.20;;
72524;SDS011;60547;48.502;8.996;2023-02-01T00:20:52;5.72;;;2.47;;
72524;SDS011;60547;48.502;8.996;2023-02-01T00:23:17;5.13;;;2.40;;
72524;SDS011;60547;48.502;8.996;2023-02-01T00:25:43;3.65;;;1.90;;
72524;SDS011;60547;48.502;8.996;2023-02-01T00:28:08;6.68;;;2.47;;
72524;SDS011;60547;48.502;8.996;2023-02-01T00:30:34;4.88;;;2.00;;
72524;SDS011;60547;48.502;8.996;2023-02-01T00:32:59;4.65;;;1.95;;
72524;SDS011;60547;48.502;8.996;2023-02-01T00:35:25;3.42;;;1.70;;
72524;SDS011;60547;48.502;8.996;2023-02-01T00:37:50;4.95;;;1.83;;
72524;SDS011;60547;48.502;8.996;2023-02-01T00:40:16;5.03;;;2.08;;
72524;SDS011;60547;48.502;8.996;2023-02-01T00:42:42;5.25;;;2.38;;
72524;SDS011;60547;48.502;8.996;2023-02-01T00:45:07;4.35;;;2.03;;
72524;SDS011;60547;48.502;8.996;2023-02-01T00:47:33;4.80;;;2.30;;
72524;SDS011;60547;48.502;8.996;2023-02-01T00:49:59;3.08;;;1.73;;
72524;SDS011;60547;48.502;8.996;2023-02-01T00:52:25;3.47;;;1.65;;
72524;SDS011;60547;48.502;8.996;2023-02-01T00:54:50;3.78;;;1.83;;
72524;SDS011;60547;48.502;8.996;2023-02-01T00:57:15;5.72;;;1.88;;
72524;SDS011;60547;48.502;8.996;2023-02-01T00:59:41;3.90;;;1.73;;
72524;SDS011;60547;48.502;8.996;2023-02-01T01:02:09;3.30;;;1.70;;
72524;SDS011;60547;48.502;8.996;2023-02-01T01:04:35;4.18;;;2.03;;
72524;SDS011;60547;48.502;8.996;2023-02-01T01:07:01;4.45;;;2.10;;
72524;SDS011;60547;48.502;8.996;2023-02-01T01:09:26;4.07;;;1.90;;
72524;SDS011;60547;48.502;8.996;2023-02-01T01:11:52;3.80;;;1.65;;
72524;SDS011;60547;48.502;8.996;2023-02-01T01:14:17;2.97;;;1.70;;
72524;SDS011;60547;48.502;8.996;2023-02-01T01:16:43;3.53;;;1.58;;
72524;SDS011;60547;48.502;8.996;2023-02-01T01:19:08;3.42;;;1.65;;
72524;SDS011;60547;48.502;8.996;2023-02-01T01:21:34;4.40;;;1.75;;
72524;SDS011;60547;48.502;8.996;2023-02-01T01:23:59;4.38;;;1.60;;
72524;SDS011;60547;48.502;8.996;2023-02-01T01:26:25;3.30;;;1.30;;
72524;SDS011;60547;48.502;8.996;2023-02-01T01:28:54;3.20;;;1.50;;
72524;SDS011;60547;48.502;8.996;2023-02-01T01:31:21;3.72;;;1.60;;
72524;SDS011;60547;48.502;8.996;2023-02-01T01:33:47;3.42;;;1.60;;
72524;SDS011;60547;48.502;8.996;2023-02-01T01:36:14;2.97;;;1.55;;
72524;SDS011;60547;48.502;8.996;2023-02-01T01:38:40;3.30;;;1.60;;
72524;SDS011;60547;48.502;8.996;2023-02-01T01:41:07;3.08;;;1.50;;
72524;SDS011;60547;48.502;8.996;2023-02-01T01:46:18;2.72;;;1.30;;
72524;SDS011;60547;48.502;8.996;2023-02-01T01:51:11;4.72;;;1.70;;
72524;SDS011;60547;48.502;8.996;2023-02-01T01:53:43;3.53;;;1.48;;
72524;SDS011;60547;48.502;8.996;2023-02-01T01:56:13;2.90;;;1.30;;
72524;SDS011;60547;48.502;8.996;2023-02-01T01:58:39;2.60;;;1.20;;
72524;SDS011;60547;48.502;8.996;2023-02-01T02:01:06;5.28;;;1.70;;
72524;SDS011;60547;48.502;8.996;2023-02-01T02:03:33;3.13;;;1.50;;
72524;SDS011;60547;48.502;8.996;2023-02-01T02:06:03;3.13;;;1.40;;
72524;SDS011;60547;48.502;8.996;2023-02-01T02:08:34;4.45;;;1.40;;
72524;SDS011;60547;48.502;8.996;2023-02-01T02:11:00;3.58;;;1.40;;
72524;SDS011;60547;48.502;8.996;2023-02-01T02:13:35;4.22;;;1.60;;
72524;SDS011;60547;48.502;8.996;2023-02-01T02:18:49;3.72;;;1.65;;
72524;SDS011;60547;48.502;8.996;2023-02-01T02:21:36;3.60;;;1.70;;
72524;SDS011;60547;48.502;8.996;2023-02-01T02:24:31;3.50;;;1.60;;
72524;SDS011;60547;48.502;8.996;2023-02-01T02:38:30;2.55;;;1.40;;
72524;SDS011;60547;48.502;8.996;2023-02-01T02:46:38;3.28;;;1.75;;
72524;SDS011;60547;48.502;8.996;2023-02-01T02:52:49;3.47;;;1.48;;
72524;SDS011;60547;48.502;8.996;2023-02-01T02:55:40;4.07;;;1.90;;
72524;SDS011;60547;48.502;8.996;2023-02-01T02:58:07;3.28;;;1.55;;
72524;SDS011;60547;48.502;8.996;2023-02-01T03:00:54;3.28;;;1.83;;
72524;SDS011;60547;48.502;8.996;2023-02-01T03:03:39;3.55;;;1.60;;
72524;SDS011;60547;48.502;8.996;2023-02-01T03:06:23;4.13;;;1.70;;
72524;SDS011;60547;48.502;8.996;2023-02-01T03:08:50;3.70;;;1.88;;
72524;SDS011;60547;48.502;8.996;2023-02-01T03:11:22;4.43;;;1.60;;
72524;SDS011;60547;48.502;8.996;2023-02-01T03:13:50;3.97;;;1.70;;
72524;SDS011;60547;48.502;8.996;2023-02-01T03:16:35;4.15;;;1.63;;
72524;SDS011;60547;48.502;8.996;2023-02-01T03:19:08;4.03;;;1.70;;
72524;SDS011;60547;48.502;8.996;2023-02-01T03:21:38;3.33;;;1.77;;
72524;SDS011;60547;48.502;8.996;2023-02-01T03:24:05;4.30;;;1.98;;
72524;SDS011;60547;48.502;8.996;2023-02-01T03:26:46;3.13;;;1.58;;
72524;SDS011;60547;48.502;8.996;2023-02-01T03:29:18;3.88;;;1.70;;
72524;SDS011;60547;48.502;8.996;2023-02-01T03:31:50;3.38;;;1.52;;
72524;SDS011;60547;48.502;8.996;2023-02-01T03:34:16;3.63;;;1.75;;
72524;SDS011;60547;48.502;8.996;2023-02-01T03:36:52;4.35;;;2.30;;
72524;SDS011;60547;48.502;8.996;2023-02-01T03:39:27;3.35;;;1.80;;
72524;SDS011;60547;48.502;8.996;2023-02-01T03:42:05;3.35;;;1.67;;
72524;SDS011;60547;48.502;8.996;2023-02-01T03:44:38;3.00;;;1.77;;
72524;SDS011;60547;48.502;8.996;2023-02-01T03:47:16;5.30;;;2.00;;
72524;SDS011;60547;48.502;8.996;2023-02-01T03:49:50;2.88;;;1.60;;
72524;SDS011;60547;48.502;8.996;2023-02-01T03:52:32;3.33;;;1.73;;
72524;SDS011;60547;48.502;8.996;2023-02-01T03:55:03;3.70;;;1.70;;
72524;SDS011;60547;48.502;8.996;2023-02-01T03:57:32;4.38;;;1.52;;
72524;SDS011;60547;48.502;8.996;2023-02-01T04:00:09;3.78;;;2.17;;
72524;SDS011;60547;48.502;8.996;2023-02-01T04:02:41;3.30;;;1.90;;
72524;SDS011;60547;48.502;8.996;2023-02-01T04:05:07;3.35;;;1.70;;
72524;SDS011;60547;48.502;8.996;2023-02-01T04:07:33;4.50;;;2.08;;
72524;SDS011;60547;48.502;8.996;2023-02-01T04:09:59;4.55;;;1.83;;
72524;SDS011;60547;48.502;8.996;2023-02-01T04:12:24;4.30;;;2.28;;
72524;SDS011;60547;48.502;8.996;2023-02-01T04:14:50;4.20;;;2.10;;
72524;SDS011;60547;48.502;8.996;2023-02-01T04:17:15;3.85;;;2.03;;
72524;SDS011;60547;48.502;8.996;2023-02-01T04:19:40;4.30;;;2.08;;
72524;SDS011;60547;48.502;8.996;2023-02-01T04:22:06;4.63;;;1.70;;
72524;SDS011;60547;48.502;8.996;2023-02-01T04:24:31;3.95;;;1.92;;
72524;SDS011;60547;48.502;8.996;2023-02-01T04:26:57;4.70;;;2.30;;
72524;SDS011;60547;48.502;8.996;2023-02-01T04:29:22;4.80;;;1.95;;
72524;SDS011;60547;48.502;8.996;2023-02-01T04:31:48;3.63;;;1.70;;
72524;SDS011;60547;48.502;8.996;2023-02-01T04:34:14;5.63;;;2.35;;
72524;SDS011;60547;48.502;8.996;2023-02-01T04:36:40;4.35;;;1.90;;
72524;SDS011;60547;48.502;8.996;2023-02-01T04:39:08;3.67;;;1.95;;
72524;SDS011;60547;48.502;8.996;2023-02-01T04:41:34;3.55;;;2.03;;
72524;SDS011;60547;48.502;8.996;2023-02-01T04:43:59;4.35;;;2.25;;
72524;SDS011;60547;48.502;8.996;2023-02-01T04:46:25;3.75;;;1.95;;
72524;SDS011;60547;48.502;8.996;2023-02-01T04:48:50;3.65;;;2.15;;
72524;SDS011;60547;48.502;8.996;2023-02-01T04:51:16;4.65;;;1.90;;
72524;SDS011;60547;48.502;8.996;2023-02-01T04:53:43;4.50;;;2.35;;
72524;SDS011;60547;48.502;8.996;2023-02-01T04:56:09;4.57;;;2.25;;
72524;SDS011;60547;48.502;8.996;2023-02-01T04:58:35;4.07;;;1.90;;
72524;SDS011;60547;48.502;8.996;2023-02-01T05:01:03;4.53;;;2.33;;
72524;SDS011;60547;48.502;8.996;2023-02-01T05:03:31;5.43;;;2.50;;
72524;SDS011;60547;48.502;8.996;2023-02-01T05:06:00;3.80;;;1.88;;
72524;SDS011;60547;48.502;8.996;2023-02-01T05:08:25;4.68;;;1.83;;
72524;SDS011;60547;48.502;8.996;2023-02-01T05:10:52;3.30;;;1.70;;
72524;SDS011;60547;48.502;8.996;2023-02-01T05:13:18;4.18;;;1.80;;
72524;SDS011;60547;48.502;8.996;2023-02-01T05:16:02;3.55;;;1.80;;
72524;SDS011;60547;48.502;8.996;2023-02-01T05:18:28;3.03;;;1.67;;
72524;SDS011;60547;48.502;8.996;2023-02-01T05:20:53;3.40;;;1.73;;
72524;SDS011;60547;48.502;8.996;2023-02-01T05:23:19;4.38;;;2.17;;
72524;SDS011;60547;48.502;8.996;2023-02-01T05:25:45;4.18;;;1.85;;
72524;SDS011;60547;48.502;8.996;2023-02-01T05:28:26;3.47;;;1.73;;
72524;SDS011;60547;48.502;8.996;2023-02-01T05:30:56;4.50;;;2.05;;
72524;SDS011;60547;48.502;8.996;2023-02-01T05:33:24;3.65;;;2.10;;
72524;SDS011;60547;48.502;8.996;2023-02-01T05:35:49;4.90;;;2.03;;
72524;SDS011;60547;48.502;8.996;2023-02-01T05:38:15;5.45;;;2.33;;
72524;SDS011;60547;48.502;8.996;2023-02-01T05:40:41;4.05;;;2.05;;
72524;SDS011;60547;48.502;8.996;2023-02-01T05:43:06;4.18;;;2.08;;
72524;SDS011;60547;48.502;8.996;2023-02-01T05:45:32;4.05;;;1.92;;
72524;SDS011;60547;48.502;8.996;2023-02-01T05:47:57;3.42;;;1.70;;
72524;SDS011;60547;48.502;8.996;2023-02-01T05:50:22;4.07;;;1.88;;
72524;SDS011;60547;48.502;8.996;2023-02-01T05:52:48;3.53;;;1.70;;
72524;SDS011;60547;48.502;8.996;2023-02-01T05:55:13;4.15;;;1.98;;
72524;SDS011;60547;48.502;8.996;2023-02-01T05:57:39;4.28;;;2.20;;
72524;SDS011;60547;48.502;8.996;2023-02-01T06:00:05;3.58;;;1.80;;
72524;SDS011;60547;48.502;8.996;2023-02-01T06:02:31;3.90;;;1.92;;
72524;SDS011;60547;48.502;8.996;2023-02-01T06:04:56;4.72;;;1.75;;
72524;SDS011;60547;48.502;8.996;2023-02-01T06:07:22;3.17;;;1.70;;
72524;SDS011;60547;48.502;8.996;2023-02-01T06:09:47;3.60;;;2.10;;
72524;SDS011;60547;48.502;8.996;2023-02-01T06:12:13;4.30;;;1.55;;
72524;SDS011;60547;48.502;8.996;2023-02-01T06:14:39;4.10;;;1.70;;
72524;SDS011;60547;48.502;8.996;2023-02-01T06:17:04;4.30;;;1.67;;
72524;SDS011;60547;48.502;8.996;2023-02-01T06:19:31;4.35;;;1.83;;
72524;SDS011;60547;48.502;8.996;2023-02-01T06:21:56;5.00;;;1.92;;
72524;SDS011;60547;48.502;8.996;2023-02-01T06:24:22;3.95;;;1.75;;
72524;SDS011;60547;48.502;8.996;2023-02-01T06:26:47;3.78;;;1.50;;
72524;SDS011;60547;48.502;8.996;2023-02-01T06:29:13;4.28;;;1.52;;
72524;SDS011;60547;48.502;8.996;2023-02-01T06:31:38;3.88;;;1.55;;
72524;SDS011;60547;48.502;8.996;2023-02-01T06:34:04;3.88;;;1.80;;
72524;SDS011;60547;48.502;8.996;2023-02-01T06:36:30;4.18;;;2.17;;
72524;SDS011;60547;48.502;8.996;2023-02-01T06:38:56;3.55;;;1.75;;
72524;SDS011;60547;48.502;8.996;2023-02-01T06:41:22;5.00;;;1.80;;
72524;SDS011;60547;48.502;8.996;2023-02-01T06:43:48;3.25;;;1.83;;
72524;SDS011;60547;48.502;8.996;2023-02-01T06:46:14;4.75;;;2.25;;
72524;SDS011;60547;48.502;8.996;2023-02-01T06:48:40;3.33;;;1.73;;
72524;SDS011;60547;48.502;8.996;2023-02-01T06:51:06;4.15;;;1.92;;
72524;SDS011;60547;48.502;8.996;2023-02-01T06:53:43;4.72;;;1.95;;
72524;SDS011;60547;48.502;8.996;2023-02-01T06:56:08;4.75;;;2.40;;
72524;SDS011;60547;48.502;8.996;2023-02-01T06:58:34;4.72;;;2.00;;
72524;SDS011;60547;48.502;8.996;2023-02-01T07:01:06;3.70;;;2.00;;
72524;SDS011;60547;48.502;8.996;2023-02-01T07:03:34;3.92;;;2.50;;
72524;SDS011;60547;48.502;8.996;2023-02-01T07:05:59;5.00;;;2.03;;
72524;SDS011;60547;48.502;8.996;2023-02-01T07:08:28;3.50;;;1.98;;
72524;SDS011;60547;48.502;8.996;2023-02-01T07:10:55;3.80;;;1.80;;
72524;SDS011;60547;48.502;8.996;2023-02-01T07:13:20;7.82;;;2.45;;
72524;SDS011;60547;48.502;8.996;2023-02-01T07:15:46;5.57;;;2.72;;
72524;SDS011;60547;48.502;8.996;2023-02-01T07:18:13;4.15;;;2.30;;
72524;SDS011;60547;48.502;8.996;2023-02-01T07:20:39;6.53;;;2.05;;
72524;SDS011;60547;48.502;8.996;2023-02-01T07:23:05;5.45;;;2.47;;
72524;SDS011;60547;48.502;8.996;2023-02-01T07:25:31;5.18;;;3.20;;
72524;SDS011;60547;48.502;8.996;2023-02-01T07:27:57;5.43;;;2.88;;
72524;SDS011;60547;48.502;8.996;2023-02-01T07:30:23;4.78;;;2.50;;
72524;SDS011;60547;48.502;8.996;2023-02-01T07:32:48;5.20;;;2.60;;
72524;SDS011;60547;48.502;8.996;2023-02-01T07:35:14;5.72;;;2.60;;
72524;SDS011;60547;48.502;8.996;2023-02-01T07:37:39;4.63;;;2.30;;
72524;SDS011;60547;48.502;8.996;2023-02-01T07:40:05;4.53;;;2.50;;
72524;SDS011;60547;48.502;8.996;2023-02-01T07:42:31;3.88;;;2.00;;
72524;SDS011;60547;48.502;8.996;2023-02-01T07:44:56;3.83;;;2.33;;
72524;SDS011;60547;48.502;8.996;2023-02-01T07:47:22;4.18;;;2.25;;
72524;SDS011;60547;48.502;8.996;2023-02-01T07:49:47;4.47;;;1.92;;
72524;SDS011;60547;48.502;8.996;2023-02-01T07:52:13;4.38;;;2.30;;
72524;SDS011;60547;48.502;8.996;2023-02-01T07:54:40;3.80;;;2.03;;
72524;SDS011;60547;48.502;8.996;2023-02-01T07:57:06;4.05;;;2.30;;
72524;SDS011;60547;48.502;8.996;2023-02-01T07:59:33;5.20;;;2.55;;
72524;SDS011;60547;48.502;8.996;2023-02-01T08:01:59;4.20;;;2.38;;
72524;SDS011;60547;48.502;8.996;2023-02-01T08:04:25;4.95;;;2.10;;
72524;SDS011;60547;48.502;8.996;2023-02-01T08:06:50;7.55;;;2.95;;
72524;SDS011;60547;48.502;8.996;2023-02-01T08:09:15;5.30;;;2.92;;
72524;SDS011;60547;48.502;8.996;2023-02-01T08:11:41;5.22;;;2.78;;
72524;SDS011;60547;48.502;8.996;2023-02-01T08:14:07;6.13;;;3.03;;
72524;SDS011;60547;48.502;8.996;2023-02-01T08:16:33;5.60;;;3.00;;
72524;SDS011;60547;48.502;8.996;2023-02-01T08:19:00;5.50;;;2.78;;
72524;SDS011;60547;48.502;8.996;2023-02-01T08:21:27;5.35;;;3.15;;
72524;SDS011;60547;48.502;8.996;2023-02-01T08:24:02;6.20;;;3.15;;
72524;SDS011;60547;48.502;8.996;2023-02-01T08:26:29;5.20;;;2.60;;
72524;SDS011;60547;48.502;8.996;2023-02-01T08:28:56;4.07;;;2.08;;
72524;SDS011;60547;48.502;8.996;2023-02-01T08:31:24;4.20;;;2.08;;
72524;SDS011;60547;48.502;8.996;2023-02-01T08:33:51;3.92;;;1.90;;
72524;SDS011;60547;48.502;8.996;2023-02-01T08:38:47;4.30;;;1.70;;
72524;SDS011;60547;48.502;8.996;2023-02-01T08:41:13;4.55;;;2.38;;
72524;SDS011;60547;48.502;8.996;2023-02-01T08:43:41;3.03;;;1.80;;
72524;SDS011;60547;48.502;8.996;2023-02-01T08:46:08;4.85;;;2.10;;
72524;SDS011;60547;48.502;8.996;2023-02-01T08:48:34;3.88;;;1.80;;
72524;SDS011;60547;48.502;8.996;2023-02-01T08:51:01;5.47;;;2.20;;
72524;SDS011;60547;48.502;8.996;2023-02-01T08:53:28;3.70;;;2.00;;
72524;SDS011;60547;48.502;8.996;2023-02-01T08:55:55;5.22;;;2.50;;
72524;SDS011;60547;48.502;8.996;2023-02-01T08:58:21;4.45;;;2.00;;
72524;SDS011;60547;48.502;8.996;2023-02-01T09:00:47;5.15;;;2.00;;
72524;SDS011;60547;48.502;8.996;2023-02-01T09:03:13;4.00;;;1.83;;
72524;SDS011;60547;48.502;8.996;2023-02-01T09:05:39;3.38;;;1.88;;
72524;SDS011;60547;48.502;8.996;2023-02-01T09:08:05;5.53;;;2.45;;
72524;SDS011;60547;48.502;8.996;2023-02-01T09:10:31;6.47;;;3.00;;
72524;SDS011;60547;48.502;8.996;2023-02-01T09:12:57;6.38;;;2.85;;
72524;SDS011;60547;48.502;8.996;2023-02-01T09:15:22;5.57;;;2.38;;
72524;SDS011;60547;48.502;8.996;2023-02-01T09:17:49;3.95;;;2.00;;
72524;SDS011;60547;48.502;8.996;2023-02-01T09:20:14;3.42;;;1.80;;
72524;SDS011;60547;48.502;8.996;2023-02-01T09:22:40;4.35;;;2.00;;
72524;SDS011;60547;48.502;8.996;2023-02-01T09:25:06;4.32;;;2.05;;
72524;SDS011;60547;48.502;8.996;2023-02-01T09:27:32;5.47;;;2.40;;
72524;SDS011;60547;48.502;8.996;2023-02-01T09:29:58;6.05;;;2.08;;
72524;SDS011;60547;48.502;8.996;2023-02-01T09:32:24;8.32;;;2.20;;
72524;SDS011;60547;48.502;8.996;2023-02-01T09:34:50;7.38;;;2.63;;
72524;SDS011;60547;48.502;8.996;2023-02-01T09:37:17;4.05;;;2.08;;
72524;SDS011;60547;48.502;8.996;2023-02-01T09:39:43;5.10;;;2.30;;
72524;SDS011;60547;48.502;8.996;2023-02-01T09:42:23;5.80;;;2.70;;
72524;SDS011;60547;48.502;8.996;2023-02-01T09:47:53;8.25;;;3.00;;
72524;SDS011;60547;48.502;8.996;2023-02-01T09:50:26;7.47;;;2.58;;
72524;SDS011;60547;48.502;8.996;2023-02-01T09:53:02;5.90;;;2.13;;
72524;SDS011;60547;48.502;8.996;2023-02-01T09:55:36;5.15;;;2.10;;
72524;SDS011;60547;48.502;8.996;2023-02-01T09:58:06;5.07;;;2.10;;
72524;SDS011;60547;48.502;8.996;2023-02-01T10:00:38;7.07;;;2.15;;
72524;SDS011;60547;48.502;8.996;2023-02-01T10:03:10;5.05;;;2.08;;
72524;SDS011;60547;48.502;8.996;2023-02-01T10:08:32;5.53;;;1.92;;
72524;SDS011;60547;48.502;8.996;2023-02-01T10:17:02;4.43;;;1.70;;
72524;SDS011;60547;48.502;8.996;2023-02-01T10:19:39;6.88;;;2.20;;
72524;SDS011;60547;48.502;8.996;2023-02-01T10:22:09;6.00;;;2.00;;
72524;SDS011;60547;48.502;8.996;2023-02-01T10:27:22;6.60;;;1.73;;
72524;SDS011;60547;48.502;8.996;2023-02-01T10:29:55;4.80;;;1.90;;
72524;SDS011;60547;48.502;8.996;2023-02-01T10:32:28;5.43;;;1.98;;
72524;SDS011;60547;48.502;8.996;2023-02-01T10:34:57;7.25;;;1.90;;
72524;SDS011;60547;48.502;8.996;2023-02-01T10:37:29;6.40;;;2.40;;
72524;SDS011;60547;48.502;8.996;2023-02-01T10:40:00;6.57;;;1.80;;
72524;SDS011;60547;48.502;8.996;2023-02-01T10:42:37;5.82;;;2.00;;
72524;SDS011;60547;48.502;8.996;2023-02-01T10:45:04;7.07;;;1.85;;
72524;SDS011;60547;48.502;8.996;2023-02-01T10:47:31;4.93;;;1.80;;
72524;SDS011;60547;48.502;8.996;2023-02-01T10:52:45;5.38;;;1.60;;
72524;SDS011;60547;48.502;8.996;2023-02-01T10:58:00;5.30;;;1.80;;
72524;SDS011;60547;48.502;8.996;2023-02-01T11:00:27;7.38;;;2.10;;
72524;SDS011;60547;48.502;8.996;2023-02-01T11:02:59;7.97;;;2.00;;
72524;SDS011;60547;48.502;8.996;2023-02-01T11:05:24;6.45;;;1.70;;
72524;SDS011;60547;48.502;8.996;2023-02-01T11:07:52;6.72;;;2.05;;
72524;SDS011;60547;48.502;8.996;2023-02-01T11:10:39;5.93;;;1.95;;
72524;SDS011;60547;48.502;8.996;2023-02-01T11:13:13;8.80;;;1.95;;
72524;SDS011;60547;48.502;8.996;2023-02-01T11:15:44;6.80;;;2.08;;
72524;SDS011;60547;48.502;8.996;2023-02-01T11:18:15;7.13;;;2.13;;
72524;SDS011;60547;48.502;8.996;2023-02-01T11:20:45;4.70;;;1.92;;
72524;SDS011;60547;48.502;8.996;2023-02-01T11:23:21;7.88;;;2.25;;
72524;SDS011;60547;48.502;8.996;2023-02-01T11:25:49;8.30;;;2.00;;
72524;SDS011;60547;48.502;8.996;2023-02-01T11:28:20;5.75;;;2.40;;
72524;SDS011;60547;48.502;8.996;2023-02-01T11:30:49;7.22;;;2.00;;
72524;SDS011;60547;48.502;8.996;2023-02-01T11:33:19;5.07;;;2.05;;
72524;SDS011;60547;48.502;8.996;2023-02-01T11:35:50;4.63;;;1.70;;
72524;SDS011;60547;48.502;8.996;2023-02-01T11:41:12;7.32;;;1.90;;
72524;SDS011;60547;48.502;8.996;2023-02-01T11:46:18;9.35;;;2.22;;
72524;SDS011;60547;48.502;8.996;2023-02-01T11:48:50;7.47;;;2.13;;
72524;SDS011;60547;48.502;8.996;2023-02-01T11:51:21;4.82;;;1.85;;
72524;SDS011;60547;48.502;8.996;2023-02-01T11:56:51;5.80;;;1.90;;
72524;SDS011;60547;48.502;8.996;2023-02-01T11:59:26;6.35;;;1.75;;
72524;SDS011;60547;48.502;8.996;2023-02-01T12:04:58;7.78;;;1.92;;
72524;SDS011;60547;48.502;8.996;2023-02-01T12:10:19;6.15;;;2.03;;
72524;SDS011;60547;48.502;8.996;2023-02-01T12:13:04;8.20;;;1.98;;
72524;SDS011;60547;48.502;8.996;2023-02-01T12:27:13;5.40;;;2.10;;
72524;SDS011;60547;48.502;8.996;2023-02-01T12:43:01;4.90;;;2.00;;
72524;SDS011;60547;48.502;8.996;2023-02-01T12:45:38;4.60;;;1.55;;
72524;SDS011;60547;48.502;8.996;2023-02-01T12:51:15;7.00;;;2.13;;
72524;SDS011;60547;48.502;8.996;2023-02-01T12:53:46;9.52;;;2.10;;
72524;SDS011;60547;48.502;8.996;2023-02-01T12:56:21;6.88;;;1.92;;
72524;SDS011;60547;48.502;8.996;2023-02-01T12:58:53;8.43;;;2.42;;
72524;SDS011;60547;48.502;8.996;2023-02-01T13:01:36;6.20;;;2.65;;
72524;SDS011;60547;48.502;8.996;2023-02-01T13:04:10;9.43;;;2.05;;
72524;SDS011;60547;48.502;8.996;2023-02-01T13:06:46;5.97;;;1.80;;
72524;SDS011;60547;48.502;8.996;2023-02-01T13:12:00;5.20;;;1.60;;
72524;SDS011;60547;48.502;8.996;2023-02-01T13:14:39;7.75;;;2.10;;
72524;SDS011;60547;48.502;8.996;2023-02-01T13:17:10;7.97;;;2.25;;
72524;SDS011;60547;48.502;8.996;2023-02-01T13:22:39;5.78;;;2.60;;
72524;SDS011;60547;48.502;8.996;2023-02-01T13:25:13;5.47;;;1.95;;
72524;SDS011;60547;48.502;8.996;2023-02-01T13:27:41;8.10;;;3.53;;
72524;SDS011;60547;48.502;8.996;2023-02-01T13:35:57;11.63;;;3.88;;
72524;SDS011;60547;48.502;8.996;2023-02-01T13:43:55;8.88;;;4.30;;
72524;SDS011;60547;48.502;8.996;2023-02-01T13:46:42;14.23;;;4.63;;
72524;SDS011;60547;48.502;8.996;2023-02-01T13:49:18;8.43;;;4.40;;
72524;SDS011;60547;48.502;8.996;2023-02-01T13:51:49;11.18;;;3.72;;
72524;SDS011;60547;48.502;8.996;2023-02-01T13:54:25;10.98;;;4.47;;
72524;SDS011;60547;48.502;8.996;2023-02-01T13:56:54;10.18;;;3.45;;
72524;SDS011;60547;48.502;8.996;2023-02-01T14:02:35;8.48;;;2.80;;
72524;SDS011;60547;48.502;8.996;2023-02-01T14:05:08;7.85;;;2.30;;
72524;SDS011;60547;48.502;8.996;2023-02-01T14:07:34;6.50;;;2.15;;
72524;SDS011;60547;48.502;8.996;2023-02-01T14:10:45;7.00;;;3.08;;
72524;SDS011;60547;48.502;8.996;2023-02-01T14:13:04;8.50;;;2.75;;
72524;SDS011;60547;48.502;8.996;2023-02-01T14:15:37;6.70;;;2.67;;
72524;SDS011;60547;48.502;8.996;2023-02-01T14:18:05;4.60;;;2.78;;
72524;SDS011;60547;48.502;8.996;2023-02-01T14:23:47;6.18;;;2.20;;
72524;SDS011;60547;48.502;8.996;2023-02-01T14:26:27;6.07;;;2.42;;
72524;SDS011;60547;48.502;8.996;2023-02-01T14:31:51;8.57;;;2.60;;
72524;SDS011;60547;48.502;8.996;2023-02-01T14:47:43;7.32;;;2.47;;
72524;SDS011;60547;48.502;8.996;2023-02-01T14:57:58;8.73;;;3.55;;
72524;SDS011;60547;48.502;8.996;2023-02-01T15:00:28;6.82;;;2.10;;
72524;SDS011;60547;48.502;8.996;2023-02-01T15:02:56;7.50;;;2.60;;
72524;SDS011;60547;48.502;8.996;2023-02-01T15:05:42;7.85;;;2.20;;
72524;SDS011;60547;48.502;8.996;2023-02-01T15:08:18;7.70;;;2.40;;
72524;SDS011;60547;48.502;8.996;2023-02-01T15:10:47;7.90;;;2.78;;
72524;SDS011;60547;48.502;8.996;2023-02-01T15:13:19;6.90;;;2.65;;
72524;SDS011;60547;48.502;8.996;2023-02-01T15:15:59;9.88;;;2.15;;
72524;SDS011;60547;48.502;8.996;2023-02-01T15:18:35;10.60;;;4.07;;
72524;SDS011;60547;48.502;8.996;2023-02-01T15:21:02;7.80;;;3.10;;
72524;SDS011;60547;48.502;8.996;2023-02-01T15:23:30;8.57;;;3.10;;
72524;SDS011;60547;48.502;8.996;2023-02-01T15:25:55;8.95;;;3.55;;
72524;SDS011;60547;48.502;8.996;2023-02-01T15:28:21;11.07;;;2.80;;
72524;SDS011;60547;48.502;8.996;2023-02-01T15:31:00;7.90;;;2.42;;
72524;SDS011;60547;48.502;8.996;2023-02-01T15:33:29;9.55;;;3.42;;
72524;SDS011;60547;48.502;8.996;2023-02-01T15:38:35;9.93;;;3.55;;
72524;SDS011;60547;48.502;8.996;2023-02-01T15:41:12;11.32;;;3.53;;
72524;SDS011;60547;48.502;8.996;2023-02-01T15:43:47;11.77;;;2.90;;
72524;SDS011;60547;48.502;8.996;2023-02-01T15:46:38;6.35;;;2.90;;
72524;SDS011;60547;48.502;8.996;2023-02-01T15:49:16;9.75;;;3.20;;
72524;SDS011;60547;48.502;8.996;2023-02-01T15:51:43;9.40;;;3.40;;
72524;SDS011;60547;48.502;8.996;2023-02-01T15:54:19;9.07;;;3.47;;
72524;SDS011;60547;48.502;8.996;2023-02-01T15:56:53;10.30;;;3.42;;
72524;SDS011;60547;48.502;8.996;2023-02-01T15:59:24;8.77;;;3.35;;
72524;SDS011;60547;48.502;8.996;2023-02-01T16:01:56;8.77;;;3.75;;
72524;SDS011;60547;48.502;8.996;2023-02-01T16:04:23;10.95;;;4.80;;
72524;SDS011;60547;48.502;8.996;2023-02-01T16:06:57;11.00;;;5.45;;
72524;SDS011;60547;48.502;8.996;2023-02-01T16:09:37;13.32;;;3.78;;
72524;SDS011;60547;48.502;8.996;2023-02-01T16:13:03;13.02;;;3.63;;
72524;SDS011;60547;48.502;8.996;2023-02-01T16:15:04;10.55;;;3.45;;
72524;SDS011;60547;48.502;8.996;2023-02-01T16:17:30;10.43;;;4.32;;
72524;SDS011;60547;48.502;8.996;2023-02-01T16:19:56;10.82;;;3.72;;
72524;SDS011;60547;48.502;8.996;2023-02-01T16:22:23;9.38;;;4.25;;
72524;SDS011;60547;48.502;8.996;2023-02-01T16:24:49;11.30;;;4.30;;
72524;SDS011;60547;48.502;8.996;2023-02-01T16:27:14;10.90;;;4.05;;
72524;SDS011;60547;48.502;8.996;2023-02-01T16:29:40;6.82;;;2.70;;
72524;SDS011;60547;48.502;8.996;2023-02-01T16:32:05;8.57;;;3.10;;
72524;SDS011;60547;48.502;8.996;2023-02-01T16:34:34;6.68;;;2.83;;
72524;SDS011;60547;48.502;8.996;2023-02-01T16:37:01;6.47;;;2.50;;
72524;SDS011;60547;48.502;8.996;2023-02-01T16:39:28;8.07;;;2.38;;
72524;SDS011;60547;48.502;8.996;2023-02-01T16:41:53;8.45;;;2.60;;
72524;SDS011;60547;48.502;8.996;2023-02-01T16:44:19;7.68;;;3.13;;
72524;SDS011;60547;48.502;8.996;2023-02-01T16:46:44;7.40;;;2.58;;
72524;SDS011;60547;48.502;8.996;2023-02-01T16:49:17;7.80;;;2.58;;
72524;SDS011;60547;48.502;8.996;2023-02-01T16:51:45;8.20;;;3.13;;
72524;SDS011;60547;48.502;8.996;2023-02-01T16:54:10;9.73;;;3.35;;
72524;SDS011;60547;48.502;8.996;2023-02-01T16:56:36;10.10;;;3.00;;
72524;SDS011;60547;48.502;8.996;2023-02-01T16:59:05;7.50;;;3.00;;
72524;SDS011;60547;48.502;8.996;2023-02-01T17:01:31;10.07;;;2.92;;
72524;SDS011;60547;48.502;8.996;2023-02-01T17:03:56;11.68;;;2.83;;
72524;SDS011;60547;48.502;8.996;2023-02-01T17:06:22;6.00;;;2.80;;
72524;SDS011;60547;48.502;8.996;2023-02-01T17:08:54;6.50;;;2.72;;
72524;SDS011;60547;48.502;8.996;2023-02-01T17:11:23;7.13;;;2.40;;
72524;SDS011;60547;48.502;8.996;2023-02-01T17:13:49;6.75;;;2.63;;
72524;SDS011;60547;48.502;8.996;2023-02-01T17:18:43;9.77;;;3.22;;
72524;SDS011;60547;48.502;8.996;2023-02-01T17:21:11;8.52;;;3.28;;
72524;SDS011;60547;48.502;8.996;2023-02-01T17:23:37;8.43;;;3.78;;
72524;SDS011;60547;48.502;8.996;2023-02-01T17:26:03;7.60;;;3.40;;